Terminal Aerodrome Forecast
Issued by NWS Charleston, WV

Current Version | Previous Version | Graphics & Text | Print | Product List | Glossary On
Versions: 1 2 3 4 5 6 7 8 9 10 11 12 13 14 15 16 17 18 19 20 21 22 23 24 25 26 27 28 29
749
FTUS41 KRLX 210703 AAA
TAFCRW
TAF AMD
KCRW 210703Z 2107/2206 VRB03KT 1SM BR SCT001 OVC035
     FM211200 VRB03KT 4SM BR OVC012
     FM211600 24006KT P6SM OVC020
     FM211800 25006KT 5SM SHRA OVC020
     FM212200 31005KT 5SM BR BKN015
     FM220300 32004KT 4SM -DZ BR OVC008=

USA.gov is the U.S. government's official web portal to all federal, state and local government web resources and services.